Ludington, MI

1:38 PM EST on November 12, 2019 (GMT -0500)
Mason County

Weather History for KLDM - October, 2019

Change the Weather History Date:

Monday, October 21, 2019

  Actual Average Record
Temperature  
Mean Temperature 51 °F -  
Max Temperature 61 °F 56 °F 82 °F (1953)
Min Temperature 41 °F 39 °F 27 °F (1952)
Degree Days  
Heating Degree Days 14    
Growing Degree Days 1 (Base 50)    
Moisture  
Dew Point 49 °F    
Average Humidity 84    
Maximum Humidity 96    
Minimum Humidity 64    
Precipitation  
Precipitation 0.24 in - - ()
Sea Level Pressure  
Sea Level Pressure 29.65 in    
Wind  
Wind Speed 10 mph (SE)    
Max Wind Speed 26 mph    
Max Gust Speed 44 mph    
Visibility 9 miles    
Events Rain    
Averages and records for this station are not official NWS values.
T = Trace of Precipitation, MM = Missing Value Source: NWS Daily Summary

Daily Weather History Graph

Daily Weather History Graph

Search for Another Location

Airport or City:

Astronomy

Oct. 21, 2019 Rise Set
Actual Time 8:07 AM EDT 6:52 PM EDT
Civil Twilight 7:38 AM EDT 7:21 PM EDT
Nautical Twilight 7:04 AM EDT 7:55 PM EDT
Astronomical Twilight 6:31 AM EDT 8:28 PM EDT
Moon No Moon Rise 3:32 PM EDT (10/21)
Length of Visible Light 11h 43m
Length of Day
10h 44m
Waning Gibbous, 48% of the Moon is Illuminated
Oct 21
Waning Gibbous
Oct 27
New
Nov 4
First Quarter
Nov 12
Full
Nov 19
Last Quarter

Hourly Weather History & Observations

Time (EDT) Temp. Windchill Dew Point Humidity Pressure Visibility Wind Dir Wind Speed Gust Speed Precip Events Conditions
12:17 AM 42.1 °F - 41.0 °F 96% 29.94 in 4.0 mi Calm Calm - N/A   Clear
12:35 AM 41.9 °F - 40.8 °F 96% 29.93 in 3.0 mi Calm Calm - N/A   Clear
12:55 AM 41.5 °F - 40.5 °F 96% 29.94 in 5.0 mi Calm Calm - N/A   Clear
1:15 AM 42.6 °F - 41.5 °F 96% 29.94 in 4.0 mi Calm Calm - N/A   Clear
1:20 AM 42.4 °F - 41.4 °F 96% 29.94 in 4.0 mi Calm Calm - N/A   Clear
1:38 AM 43.5 °F 41.9 °F 42.3 °F 95% 29.93 in 4.0 mi ENE 3.5 mph - N/A   Clear
1:56 AM 44.1 °F 41.5 °F 43.0 °F 96% 29.93 in 7.0 mi ENE 4.6 mph - N/A   Clear
2:15 AM 43.9 °F 40.5 °F 42.8 °F 96% 29.93 in 10.0 mi East 5.8 mph - N/A   Clear
2:35 AM 44.8 °F 39.9 °F 43.7 °F 96% 29.92 in 10.0 mi East 9.2 mph - N/A   Clear
2:59 AM 46.6 °F - 45.5 °F 96% 29.91 in 10.0 mi ESE 8.1 mph - N/A   Clear
3:17 AM 46.6 °F - 44.8 °F 93% 29.90 in 10.0 mi East 8.1 mph - N/A   Clear
3:35 AM 46.6 °F - 45.0 °F 94% 29.87 in 10.0 mi East 9.2 mph - N/A   Clear
3:55 AM 46.6 °F - 45.0 °F 94% 29.90 in 10.0 mi East 6.9 mph - N/A   Scattered Clouds
4:15 AM 47.5 °F - 45.9 °F 94% 29.90 in 10.0 mi East 5.8 mph - N/A   Overcast
4:38 AM 48.6 °F - 46.4 °F 92% 29.90 in 10.0 mi East 6.9 mph - N/A   Overcast
4:56 AM 48.7 °F - 46.6 °F 92% 29.90 in 10.0 mi ESE 6.9 mph - N/A   Overcast
5:15 AM 49.3 °F - 46.9 °F 92% 29.88 in 10.0 mi East 10.4 mph - N/A   Overcast
5:16 AM 49.3 °F - 46.9 °F 92% 29.88 in 10.0 mi East 9.2 mph - N/A   Overcast
5:35 AM 49.6 °F - 46.9 °F 90% 29.87 in 10.0 mi East 9.2 mph - N/A   Overcast
5:59 AM 49.8 °F - 46.8 °F 89% 29.86 in 10.0 mi ESE 10.4 mph - N/A   Mostly Cloudy
6:17 AM 50.0 °F - 46.6 °F 88% 29.86 in 10.0 mi ESE 9.2 mph - N/A   Scattered Clouds
6:35 AM 50.4 °F - 46.6 °F 87% 29.85 in 10.0 mi ESE 10.4 mph - N/A   Clear
6:36 AM 50.4 °F - 46.6 °F 87% 29.85 in 10.0 mi ESE 10.4 mph - N/A   Clear
6:55 AM 50.4 °F - 46.4 °F 86% 29.84 in 10.0 mi ESE 10.4 mph - N/A   Clear
6:56 AM 50.2 °F - 46.4 °F 87% 29.84 in 10.0 mi ESE 9.2 mph - N/A   Clear
7:15 AM 50.2 °F - 45.9 °F 85% 29.84 in 10.0 mi ESE 9.2 mph - N/A   Clear
7:38 AM 51.1 °F - 46.4 °F 84% 29.82 in 10.0 mi ESE 12.7 mph 18.4 mph N/A   Mostly Cloudy
7:56 AM 51.3 °F - 46.4 °F 83% 29.79 in 10.0 mi ESE 12.7 mph - N/A   Overcast
8:15 AM 50.9 °F - 46.0 °F 83% 29.77 in 10.0 mi ESE 13.8 mph 18.4 mph N/A   Scattered Clouds
8:16 AM 51.1 °F - 46.0 °F 83% 29.77 in 10.0 mi ESE 12.7 mph 18.4 mph N/A   Scattered Clouds
8:35 AM 51.8 °F - 46.0 °F 81% 29.77 in 10.0 mi ESE 15.0 mph 20.7 mph N/A   Mostly Cloudy
8:36 AM 51.8 °F - 46.0 °F 81% 29.77 in 10.0 mi ESE 15.0 mph 20.7 mph N/A   Mostly Cloudy
8:59 AM 52.2 °F - 46.0 °F 80% 29.78 in 10.0 mi ESE 13.8 mph 19.6 mph N/A   Overcast
9:17 AM 52.9 °F - 45.9 °F 77% 29.77 in 10.0 mi ESE 16.1 mph 23.0 mph N/A   Overcast
9:35 AM 53.2 °F - 45.7 °F 76% 29.75 in 10.0 mi ESE 15.0 mph 21.9 mph N/A   Overcast
9:55 AM 53.6 °F - 45.7 °F 75% 29.75 in 10.0 mi ESE 12.7 mph 19.6 mph N/A   Overcast
9:56 AM 53.6 °F - 45.7 °F 75% 29.75 in 10.0 mi ESE 11.5 mph - N/A   Overcast
10:15 AM 53.6 °F - 45.7 °F 75% 29.73 in 10.0 mi ESE 13.8 mph 21.9 mph N/A   Overcast
10:20 AM 53.6 °F - 45.9 °F 75% 29.73 in 10.0 mi ESE 13.8 mph 21.9 mph N/A   Overcast
10:38 AM 53.8 °F - 45.9 °F 75% 29.71 in 10.0 mi ESE 16.1 mph 23.0 mph N/A   Mostly Cloudy
10:56 AM 54.5 °F - 46.0 °F 73% 29.70 in 10.0 mi ESE 13.8 mph 25.3 mph N/A   Scattered Clouds
11:15 AM 54.5 °F - 46.4 °F 74% 29.68 in 10.0 mi ESE 16.1 mph 20.7 mph N/A   Mostly Cloudy
11:35 AM 54.7 °F - 46.8 °F 75% 29.65 in 10.0 mi ESE 15.0 mph 20.7 mph N/A   Scattered Clouds
11:36 AM 54.7 °F - 46.8 °F 75% 29.65 in 10.0 mi ESE 16.1 mph 23.0 mph N/A   Scattered Clouds
11:59 AM 55.4 °F - 47.3 °F 74% 29.60 in 10.0 mi ESE 19.6 mph 29.9 mph N/A   Scattered Clouds
12:17 PM 56.3 °F - 47.8 °F 73% 29.59 in 10.0 mi ESE 16.1 mph 31.1 mph N/A   Scattered Clouds
12:35 PM 57.6 °F - 48.7 °F 72% 29.56 in 10.0 mi ESE 17.3 mph 32.2 mph N/A   Mostly Cloudy
12:55 PM 59.0 °F - 50.5 °F 73% 29.54 in 10.0 mi SE 19.6 mph 31.1 mph N/A Rain Rain
12:56 PM 59.0 °F - 50.7 °F 74% 29.54 in 10.0 mi SE 21.9 mph 31.1 mph N/A Rain Rain
1:20 PM 57.7 °F - 52.7 °F 83% 29.52 in 7.0 mi SE 13.8 mph 28.8 mph N/A Rain Light Rain
1:38 PM 58.3 °F - 53.6 °F 84% 29.49 in 10.0 mi SE 26.5 mph 39.1 mph 0.01 in Rain Light Rain
1:56 PM 59.0 °F - 54.1 °F 84% 29.47 in 10.0 mi SE 26.5 mph 43.7 mph 0.01 in   Overcast
2:15 PM 59.0 °F - 54.1 °F 84% 29.46 in 10.0 mi SE 25.3 mph 36.8 mph N/A   Overcast
2:35 PM 59.4 °F - 54.1 °F 83% 29.48 in 10.0 mi SSE 20.7 mph 35.7 mph N/A   Overcast
2:36 PM 59.4 °F - 54.1 °F 83% 29.48 in 10.0 mi SSE 20.7 mph 35.7 mph N/A   Overcast
2:59 PM 58.1 °F - 55.4 °F 91% 29.47 in 5.0 mi SSE 15.0 mph 27.6 mph 0.04 in Rain Light Rain
3:17 PM 58.3 °F - 55.6 °F 91% 29.46 in 7.0 mi SE 18.4 mph 25.3 mph N/A Rain Light Rain
3:55 PM 58.3 °F - 56.3 °F 93% 29.46 in 5.0 mi SSE 15.0 mph 25.3 mph 0.05 in Rain Light Rain
3:56 PM 58.3 °F - 56.3 °F 93% 29.46 in 5.0 mi SSE 15.0 mph 25.3 mph 0.05 in Rain Light Rain
4:15 PM 58.1 °F - 56.7 °F 95% 29.45 in 2.0 mi SE 17.3 mph 27.6 mph 0.04 in Rain Rain
4:20 PM 58.1 °F - 56.7 °F 95% 29.44 in 2.5 mi SSE 13.8 mph 25.3 mph 0.05 in Rain Light Rain
4:38 PM 58.1 °F - 56.8 °F 96% 29.44 in 5.0 mi SSE 13.8 mph 23.0 mph 0.09 in Rain Light Rain
4:56 PM 58.3 °F - 57.2 °F 96% 29.44 in 7.0 mi SSE 15.0 mph 21.9 mph 0.11 in Rain Rain
5:15 PM 58.5 °F - 57.2 °F 96% 29.44 in 5.0 mi SSE 17.3 mph 24.2 mph 0.02 in Rain Light Rain
5:35 PM 59.0 °F - 57.4 °F 94% 29.44 in 10.0 mi SSE 12.7 mph 23.0 mph 0.03 in Rain Light Rain
5:36 PM 59.0 °F - 57.4 °F 94% 29.44 in 10.0 mi SSE 13.8 mph 23.0 mph 0.03 in Rain Light Rain
5:59 PM 59.2 °F - 57.6 °F 94% 29.44 in 10.0 mi SSE 12.7 mph 18.4 mph 0.03 in   Overcast
6:17 PM 59.4 °F - 57.6 °F 94% 29.44 in 10.0 mi SSE 13.8 mph 18.4 mph N/A   Overcast
6:35 PM 59.9 °F - 57.9 °F 93% 29.43 in 10.0 mi South 10.4 mph 18.4 mph N/A   Overcast
6:55 PM 60.3 °F - 57.9 °F 92% 29.43 in 10.0 mi South 13.8 mph 20.7 mph N/A   Overcast
7:15 PM 60.8 °F - 57.7 °F 90% 29.43 in 10.0 mi South 13.8 mph 21.9 mph N/A   Overcast
7:20 PM 60.8 °F - 57.7 °F 90% 29.43 in 10.0 mi South 13.8 mph 21.9 mph N/A   Overcast
7:38 PM 60.4 °F - 57.6 °F 90% 29.43 in 10.0 mi South 16.1 mph - N/A   Mostly Cloudy
7:56 PM 61.2 °F - 57.6 °F 88% 29.43 in 10.0 mi South 12.7 mph - N/A   Overcast
8:15 PM 61.2 °F - 57.4 °F 87% 29.44 in 10.0 mi South 11.5 mph 20.7 mph N/A   Overcast
8:35 PM 61.2 °F - 55.4 °F 81% 29.46 in 10.0 mi SSW 18.4 mph 27.6 mph N/A   Mostly Cloudy
8:36 PM 61.0 °F - 55.0 °F 81% 29.46 in 10.0 mi SSW 21.9 mph 28.8 mph N/A   Mostly Cloudy
8:59 PM 59.5 °F - 51.1 °F 74% 29.46 in 10.0 mi SSW 19.6 mph 26.5 mph N/A   Clear
9:17 PM 58.1 °F - 49.3 °F 72% 29.47 in 10.0 mi SSW 17.3 mph 25.3 mph N/A   Clear
9:35 PM 57.4 °F - 47.3 °F 69% 29.47 in 10.0 mi SW 18.4 mph 25.3 mph N/A   Scattered Clouds
9:55 PM 56.5 °F - 46.2 °F 68% 29.47 in 10.0 mi SSW 13.8 mph 23.0 mph N/A   Scattered Clouds
10:15 PM 55.6 °F - 45.5 °F 69% 29.48 in 10.0 mi SSW 12.7 mph 20.7 mph N/A   Clear
10:20 PM 55.6 °F - 45.7 °F 69% 29.48 in 10.0 mi SSW 11.5 mph 20.7 mph N/A   Clear
10:38 PM 55.0 °F - 45.0 °F 69% 29.48 in 10.0 mi SSW 13.8 mph 19.6 mph N/A   Clear
10:56 PM 55.0 °F - 45.5 °F 70% 29.49 in 10.0 mi SSW 15.0 mph 20.7 mph N/A   Scattered Clouds
11:15 PM 54.7 °F - 43.0 °F 65% 29.49 in 10.0 mi SW 20.7 mph 34.5 mph N/A   Mostly Cloudy
11:35 PM 52.9 °F - 42.1 °F 67% 29.50 in 10.0 mi SW 16.1 mph 26.5 mph N/A   Mostly Cloudy
11:36 PM 52.9 °F - 42.1 °F 67% 29.50 in 10.0 mi SW 17.3 mph 26.5 mph N/A   Mostly Cloudy
11:59 PM 53.1 °F - 41.0 °F 64% 29.49 in 10.0 mi SW 19.6 mph 27.6 mph N/A   Mostly Cloudy